sensor_id;sensor_type;location;lat;lon;timestamp;pressure;altitude;pressure_sealevel;temperature
66372;BMP180;53168;51.146;17.120;2023-12-20T00:00:59;99587.60;;;6.46
66372;BMP180;53168;51.146;17.120;2023-12-20T00:03:44;99589.80;;;6.50
66372;BMP180;53168;51.146;17.120;2023-12-20T00:06:18;99581.60;;;6.50
66372;BMP180;53168;51.146;17.120;2023-12-20T00:08:52;99586.40;;;6.50
66372;BMP180;53168;51.146;17.120;2023-12-20T00:11:26;99583.00;;;6.50
66372;BMP180;53168;51.146;17.120;2023-12-20T00:14:00;99587.20;;;6.50
66372;BMP180;53168;51.146;17.120;2023-12-20T00:16:33;99587.20;;;6.50
66372;BMP180;53168;51.146;17.120;2023-12-20T00:19:07;99584.60;;;6.50
66372;BMP180;53168;51.146;17.120;2023-12-20T00:21:41;99580.20;;;6.40
66372;BMP180;53168;51.146;17.120;2023-12-20T00:24:15;99578.60;;;6.40
66372;BMP180;53168;51.146;17.120;2023-12-20T00:26:49;99580.00;;;6.40
66372;BMP180;53168;51.146;17.120;2023-12-20T00:29:23;99575.20;;;6.38
66372;BMP180;53168;51.146;17.120;2023-12-20T00:31:56;99569.40;;;6.30
66372;BMP180;53168;51.146;17.120;2023-12-20T00:34:30;99573.20;;;6.30
66372;BMP180;53168;51.146;17.120;2023-12-20T00:37:04;99580.00;;;6.30
66372;BMP180;53168;51.146;17.120;2023-12-20T00:39:38;99578.60;;;6.30
66372;BMP180;53168;51.146;17.120;2023-12-20T00:42:12;99575.20;;;6.30
66372;BMP180;53168;51.146;17.120;2023-12-20T00:44:46;99582.80;;;6.24
66372;BMP180;53168;51.146;17.120;2023-12-20T00:47:19;99568.20;;;6.30
66372;BMP180;53168;51.146;17.120;2023-12-20T00:49:54;99564.40;;;6.20
66372;BMP180;53168;51.146;17.120;2023-12-20T00:52:28;99563.20;;;6.20
66372;BMP180;53168;51.146;17.120;2023-12-20T00:55:02;99568.20;;;6.20
66372;BMP180;53168;51.146;17.120;2023-12-20T00:57:37;99563.20;;;6.20
66372;BMP180;53168;51.146;17.120;2023-12-20T01:00:13;99559.80;;;6.20
66372;BMP180;53168;51.146;17.120;2023-12-20T01:02:46;99560.20;;;6.20
66372;BMP180;53168;51.146;17.120;2023-12-20T01:05:22;99561.20;;;6.22
66372;BMP180;53168;51.146;17.120;2023-12-20T01:07:55;99566.60;;;6.26
66372;BMP180;53168;51.146;17.120;2023-12-20T01:10:29;99549.40;;;6.22
66372;BMP180;53168;51.146;17.120;2023-12-20T01:13:03;99545.20;;;6.30
66372;BMP180;53168;51.146;17.120;2023-12-20T01:15:37;99543.20;;;6.28
66372;BMP180;53168;51.146;17.120;2023-12-20T01:18:11;99546.20;;;6.30
66372;BMP180;53168;51.146;17.120;2023-12-20T01:20:45;99547.40;;;6.22
66372;BMP180;53168;51.146;17.120;2023-12-20T01:23:18;99545.60;;;6.30
66372;BMP180;53168;51.146;17.120;2023-12-20T01:25:52;99546.20;;;6.28
66372;BMP180;53168;51.146;17.120;2023-12-20T01:28:26;99549.00;;;6.28
66372;BMP180;53168;51.146;17.120;2023-12-20T01:31:00;99546.60;;;6.28
66372;BMP180;53168;51.146;17.120;2023-12-20T01:33:34;99545.20;;;6.24
66372;BMP180;53168;51.146;17.120;2023-12-20T01:36:08;99541.20;;;6.28
66372;BMP180;53168;51.146;17.120;2023-12-20T01:38:42;99543.00;;;6.30
66372;BMP180;53168;51.146;17.120;2023-12-20T01:41:16;99537.40;;;6.30
66372;BMP180;53168;51.146;17.120;2023-12-20T01:43:50;99523.00;;;6.30
66372;BMP180;53168;51.146;17.120;2023-12-20T01:46:25;99529.40;;;6.30
66372;BMP180;53168;51.146;17.120;2023-12-20T01:49:00;99523.60;;;6.30
66372;BMP180;53168;51.146;17.120;2023-12-20T01:51:37;99514.40;;;6.30
66372;BMP180;53168;51.146;17.120;2023-12-20T01:54:11;99512.80;;;6.30
66372;BMP180;53168;51.146;17.120;2023-12-20T01:56:46;99505.80;;;6.30
66372;BMP180;53168;51.146;17.120;2023-12-20T01:59:23;99494.80;;;6.30
66372;BMP180;53168;51.146;17.120;2023-12-20T02:01:58;99492.80;;;6.30
66372;BMP180;53168;51.146;17.120;2023-12-20T02:04:33;99505.40;;;6.30
66372;BMP180;53168;51.146;17.120;2023-12-20T02:07:08;99499.20;;;6.30
66372;BMP180;53168;51.146;17.120;2023-12-20T02:09:42;99507.80;;;6.30
66372;BMP180;53168;51.146;17.120;2023-12-20T02:12:16;99485.80;;;6.26
66372;BMP180;53168;51.146;17.120;2023-12-20T02:14:53;99491.00;;;6.20
66372;BMP180;53168;51.146;17.120;2023-12-20T02:17:28;99490.80;;;6.20
66372;BMP180;53168;51.146;17.120;2023-12-20T02:20:03;99494.40;;;6.20
66372;BMP180;53168;51.146;17.120;2023-12-20T02:22:38;99488.60;;;6.20
66372;BMP180;53168;51.146;17.120;2023-12-20T02:25:12;99492.60;;;6.20
66372;BMP180;53168;51.146;17.120;2023-12-20T02:27:45;99491.60;;;6.20
66372;BMP180;53168;51.146;17.120;2023-12-20T02:30:21;99494.80;;;6.20
66372;BMP180;53168;51.146;17.120;2023-12-20T02:32:55;99485.40;;;6.10
66372;BMP180;53168;51.146;17.120;2023-12-20T02:35:29;99492.80;;;6.10
66372;BMP180;53168;51.146;17.120;2023-12-20T02:38:03;99493.20;;;6.10
66372;BMP180;53168;51.146;17.120;2023-12-20T02:40:37;99486.60;;;6.10
66372;BMP180;53168;51.146;17.120;2023-12-20T02:43:10;99490.40;;;6.10
66372;BMP180;53168;51.146;17.120;2023-12-20T02:56:13;99471.40;;;6.00
66372;BMP180;53168;51.146;17.120;2023-12-20T02:58:47;99471.80;;;6.00
66372;BMP180;53168;51.146;17.120;2023-12-20T03:01:21;99472.80;;;5.90
66372;BMP180;53168;51.146;17.120;2023-12-20T03:03:55;99465.40;;;5.90
66372;BMP180;53168;51.146;17.120;2023-12-20T03:06:29;99460.20;;;5.90
66372;BMP180;53168;51.146;17.120;2023-12-20T03:09:04;99459.60;;;5.90
66372;BMP180;53168;51.146;17.120;2023-12-20T03:11:37;99455.00;;;5.88
66372;BMP180;53168;51.146;17.120;2023-12-20T03:14:11;99456.00;;;5.80
66372;BMP180;53168;51.146;17.120;2023-12-20T03:16:57;99461.60;;;5.80
66372;BMP180;53168;51.146;17.120;2023-12-20T03:19:32;99459.40;;;5.80
66372;BMP180;53168;51.146;17.120;2023-12-20T03:22:05;99463.20;;;5.80
66372;BMP180;53168;51.146;17.120;2023-12-20T03:24:39;99465.20;;;5.80
66372;BMP180;53168;51.146;17.120;2023-12-20T03:27:13;99462.00;;;5.80
66372;BMP180;53168;51.146;17.120;2023-12-20T03:29:46;99462.20;;;5.70
66372;BMP180;53168;51.146;17.120;2023-12-20T03:32:20;99457.20;;;5.70
66372;BMP180;53168;51.146;17.120;2023-12-20T03:34:54;99445.40;;;5.70
66372;BMP180;53168;51.146;17.120;2023-12-20T03:37:27;99446.80;;;5.70
66372;BMP180;53168;51.146;17.120;2023-12-20T03:40:01;99450.00;;;5.68
66372;BMP180;53168;51.146;17.120;2023-12-20T03:42:35;99452.80;;;5.60
66372;BMP180;53168;51.146;17.120;2023-12-20T03:45:12;99454.00;;;5.60
66372;BMP180;53168;51.146;17.120;2023-12-20T03:47:46;99460.80;;;5.60
66372;BMP180;53168;51.146;17.120;2023-12-20T03:50:21;99456.80;;;5.56
66372;BMP180;53168;51.146;17.120;2023-12-20T03:53:00;99461.20;;;5.60
66372;BMP180;53168;51.146;17.120;2023-12-20T03:55:33;99454.80;;;5.60
66372;BMP180;53168;51.146;17.120;2023-12-20T03:58:07;99458.00;;;5.60
66372;BMP180;53168;51.146;17.120;2023-12-20T04:00:41;99467.80;;;5.60
66372;BMP180;53168;51.146;17.120;2023-12-20T04:03:15;99462.00;;;5.60
66372;BMP180;53168;51.146;17.120;2023-12-20T04:05:49;99461.00;;;5.50
66372;BMP180;53168;51.146;17.120;2023-12-20T04:08:22;99455.00;;;5.50
66372;BMP180;53168;51.146;17.120;2023-12-20T04:10:56;99464.00;;;5.48
66372;BMP180;53168;51.146;17.120;2023-12-20T04:13:30;99460.20;;;5.42
66372;BMP180;53168;51.146;17.120;2023-12-20T04:16:05;99455.80;;;5.40
66372;BMP180;53168;51.146;17.120;2023-12-20T04:18:38;99457.80;;;5.40
66372;BMP180;53168;51.146;17.120;2023-12-20T04:21:12;99465.00;;;5.48
66372;BMP180;53168;51.146;17.120;2023-12-20T04:23:46;99458.00;;;5.42
66372;BMP180;53168;51.146;17.120;2023-12-20T04:26:19;99456.60;;;5.40
66372;BMP180;53168;51.146;17.120;2023-12-20T04:28:55;99459.60;;;5.40
66372;BMP180;53168;51.146;17.120;2023-12-20T04:31:29;99457.40;;;5.40
66372;BMP180;53168;51.146;17.120;2023-12-20T04:34:03;99458.40;;;5.32
66372;BMP180;53168;51.146;17.120;2023-12-20T04:36:37;99459.80;;;5.30
66372;BMP180;53168;51.146;17.120;2023-12-20T04:39:11;99451.60;;;5.30
66372;BMP180;53168;51.146;17.120;2023-12-20T04:41:44;99450.40;;;5.30
66372;BMP180;53168;51.146;17.120;2023-12-20T04:44:20;99455.60;;;5.30
66372;BMP180;53168;51.146;17.120;2023-12-20T04:46:55;99460.00;;;5.20
66372;BMP180;53168;51.146;17.120;2023-12-20T04:49:29;99458.00;;;5.20
66372;BMP180;53168;51.146;17.120;2023-12-20T04:52:04;99453.40;;;5.20
66372;BMP180;53168;51.146;17.120;2023-12-20T04:54:38;99451.00;;;5.20
66372;BMP180;53168;51.146;17.120;2023-12-20T04:57:16;99435.60;;;5.12
66372;BMP180;53168;51.146;17.120;2023-12-20T04:59:49;99434.00;;;5.10
66372;BMP180;53168;51.146;17.120;2023-12-20T05:02:23;99433.40;;;5.10
66372;BMP180;53168;51.146;17.120;2023-12-20T05:04:57;99433.40;;;5.10
66372;BMP180;53168;51.146;17.120;2023-12-20T05:07:31;99434.60;;;5.10
66372;BMP180;53168;51.146;17.120;2023-12-20T05:10:07;99430.40;;;5.10
66372;BMP180;53168;51.146;17.120;2023-12-20T05:12:41;99433.00;;;5.10
66372;BMP180;53168;51.146;17.120;2023-12-20T05:15:15;99427.20;;;5.10
66372;BMP180;53168;51.146;17.120;2023-12-20T05:17:49;99429.00;;;5.10
66372;BMP180;53168;51.146;17.120;2023-12-20T05:20:23;99425.60;;;5.10
66372;BMP180;53168;51.146;17.120;2023-12-20T05:22:57;99427.60;;;5.20
66372;BMP180;53168;51.146;17.120;2023-12-20T05:25:30;99431.40;;;5.14
66372;BMP180;53168;51.146;17.120;2023-12-20T05:28:05;99431.00;;;5.10
66372;BMP180;53168;51.146;17.120;2023-12-20T05:30:39;99434.20;;;5.10
66372;BMP180;53168;51.146;17.120;2023-12-20T05:33:15;99441.40;;;5.10
66372;BMP180;53168;51.146;17.120;2023-12-20T05:35:48;99434.40;;;5.10
66372;BMP180;53168;51.146;17.120;2023-12-20T05:38:22;99431.20;;;5.10
66372;BMP180;53168;51.146;17.120;2023-12-20T05:40:56;99444.20;;;5.10
66372;BMP180;53168;51.146;17.120;2023-12-20T05:43:30;99445.80;;;5.10
66372;BMP180;53168;51.146;17.120;2023-12-20T05:46:03;99444.20;;;5.10
66372;BMP180;53168;51.146;17.120;2023-12-20T05:48:37;99447.20;;;5.10
66372;BMP180;53168;51.146;17.120;2023-12-20T05:51:14;99442.60;;;5.10
66372;BMP180;53168;51.146;17.120;2023-12-20T05:53:48;99440.20;;;5.10
66372;BMP180;53168;51.146;17.120;2023-12-20T05:56:23;99436.00;;;5.10
66372;BMP180;53168;51.146;17.120;2023-12-20T05:58:57;99442.80;;;5.10
66372;BMP180;53168;51.146;17.120;2023-12-20T06:01:31;99435.40;;;5.10
66372;BMP180;53168;51.146;17.120;2023-12-20T06:04:05;99431.60;;;5.10
66372;BMP180;53168;51.146;17.120;2023-12-20T06:06:46;99434.20;;;5.10
66372;BMP180;53168;51.146;17.120;2023-12-20T06:09:20;99435.60;;;5.10
66372;BMP180;53168;51.146;17.120;2023-12-20T06:11:54;99436.20;;;5.10
66372;BMP180;53168;51.146;17.120;2023-12-20T06:14:28;99427.40;;;5.10
66372;BMP180;53168;51.146;17.120;2023-12-20T06:17:03;99432.20;;;5.10
66372;BMP180;53168;51.146;17.120;2023-12-20T06:19:37;99429.40;;;5.10
66372;BMP180;53168;51.146;17.120;2023-12-20T06:22:12;99437.40;;;5.10
66372;BMP180;53168;51.146;17.120;2023-12-20T06:24:46;99433.00;;;5.12
66372;BMP180;53168;51.146;17.120;2023-12-20T06:27:20;99433.00;;;5.10
66372;BMP180;53168;51.146;17.120;2023-12-20T06:29:53;99431.40;;;5.12
66372;BMP180;53168;51.146;17.120;2023-12-20T06:32:28;99437.20;;;5.10
66372;BMP180;53168;51.146;17.120;2023-12-20T06:35:03;99434.80;;;5.10
66372;BMP180;53168;51.146;17.120;2023-12-20T06:37:37;99429.00;;;5.12
66372;BMP180;53168;51.146;17.120;2023-12-20T06:40:15;99432.80;;;5.16
66372;BMP180;53168;51.146;17.120;2023-12-20T06:42:50;99437.60;;;5.20
66372;BMP180;53168;51.146;17.120;2023-12-20T06:45:37;99449.80;;;5.20
66372;BMP180;53168;51.146;17.120;2023-12-20T06:48:11;99439.60;;;5.20
66372;BMP180;53168;51.146;17.120;2023-12-20T06:50:46;99445.60;;;5.20
66372;BMP180;53168;51.146;17.120;2023-12-20T06:53:20;99447.00;;;5.20
66372;BMP180;53168;51.146;17.120;2023-12-20T06:55:54;99442.60;;;5.20
66372;BMP180;53168;51.146;17.120;2023-12-20T06:58:29;99448.60;;;5.20
66372;BMP180;53168;51.146;17.120;2023-12-20T07:01:03;99446.60;;;5.20
66372;BMP180;53168;51.146;17.120;2023-12-20T07:03:38;99443.00;;;5.20
66372;BMP180;53168;51.146;17.120;2023-12-20T07:06:12;99457.60;;;5.20
66372;BMP180;53168;51.146;17.120;2023-12-20T07:08:48;99453.80;;;5.10
66372;BMP180;53168;51.146;17.120;2023-12-20T07:11:22;99454.00;;;5.10
66372;BMP180;53168;51.146;17.120;2023-12-20T07:13:57;99450.40;;;5.10
66372;BMP180;53168;51.146;17.120;2023-12-20T07:16:36;99452.60;;;5.10
66372;BMP180;53168;51.146;17.120;2023-12-20T07:19:09;99455.20;;;5.10
66372;BMP180;53168;51.146;17.120;2023-12-20T07:21:45;99459.80;;;5.10
66372;BMP180;53168;51.146;17.120;2023-12-20T07:24:19;99453.80;;;5.10
66372;BMP180;53168;51.146;17.120;2023-12-20T07:26:53;99460.60;;;5.10
66372;BMP180;53168;51.146;17.120;2023-12-20T07:29:27;99463.20;;;5.00
66372;BMP180;53168;51.146;17.120;2023-12-20T07:32:01;99464.60;;;5.00
66372;BMP180;53168;51.146;17.120;2023-12-20T07:34:36;99463.60;;;5.10
66372;BMP180;53168;51.146;17.120;2023-12-20T07:37:36;99467.80;;;5.10
66372;BMP180;53168;51.146;17.120;2023-12-20T07:40:18;99470.40;;;5.10
66372;BMP180;53168;51.146;17.120;2023-12-20T07:42:52;99463.80;;;5.20
66372;BMP180;53168;51.146;17.120;2023-12-20T07:45:31;99469.60;;;5.20
66372;BMP180;53168;51.146;17.120;2023-12-20T07:48:08;99465.60;;;5.20
66372;BMP180;53168;51.146;17.120;2023-12-20T07:50:46;99462.60;;;5.22
66372;BMP180;53168;51.146;17.120;2023-12-20T07:53:26;99465.20;;;5.20
66372;BMP180;53168;51.146;17.120;2023-12-20T07:56:15;99469.20;;;5.24
66372;BMP180;53168;51.146;17.120;2023-12-20T07:58:49;99463.00;;;5.20
66372;BMP180;53168;51.146;17.120;2023-12-20T08:01:26;99467.40;;;5.20
66372;BMP180;53168;51.146;17.120;2023-12-20T08:04:01;99468.00;;;5.20
66372;BMP180;53168;51.146;17.120;2023-12-20T08:06:40;99475.80;;;5.20
66372;BMP180;53168;51.146;17.120;2023-12-20T08:09:25;99475.00;;;5.20
66372;BMP180;53168;51.146;17.120;2023-12-20T08:12:09;99471.60;;;5.20
66372;BMP180;53168;51.146;17.120;2023-12-20T08:14:49;99473.00;;;5.20
66372;BMP180;53168;51.146;17.120;2023-12-20T08:17:30;99473.80;;;5.20
66372;BMP180;53168;51.146;17.120;2023-12-20T08:20:17;99480.40;;;5.20
66372;BMP180;53168;51.146;17.120;2023-12-20T08:23:19;99473.40;;;5.20
66372;BMP180;53168;51.146;17.120;2023-12-20T08:26:07;99473.00;;;5.20
66372;BMP180;53168;51.146;17.120;2023-12-20T08:28:42;99481.80;;;5.22
66372;BMP180;53168;51.146;17.120;2023-12-20T08:31:19;99488.00;;;5.20
66372;BMP180;53168;51.146;17.120;2023-12-20T08:33:56;99480.60;;;5.20
66372;BMP180;53168;51.146;17.120;2023-12-20T08:36:31;99479.20;;;5.20
66372;BMP180;53168;51.146;17.120;2023-12-20T08:39:08;99483.20;;;5.20
66372;BMP180;53168;51.146;17.120;2023-12-20T08:41:45;99480.60;;;5.20
66372;BMP180;53168;51.146;17.120;2023-12-20T08:44:53;99483.20;;;5.20
66372;BMP180;53168;51.146;17.120;2023-12-20T08:47:48;99493.80;;;5.30
66372;BMP180;53168;51.146;17.120;2023-12-20T08:50:54;99492.00;;;5.24
66372;BMP180;53168;51.146;17.120;2023-12-20T08:54:33;99498.40;;;5.30
66372;BMP180;53168;51.146;17.120;2023-12-20T08:58:06;99501.20;;;5.28
66372;BMP180;53168;51.146;17.120;2023-12-20T09:01:16;99498.60;;;5.30
66372;BMP180;53168;51.146;17.120;2023-12-20T09:04:00;99509.40;;;5.30
66372;BMP180;53168;51.146;17.120;2023-12-20T09:06:38;99500.20;;;5.36
66372;BMP180;53168;51.146;17.120;2023-12-20T09:09:38;99497.60;;;5.30
66372;BMP180;53168;51.146;17.120;2023-12-20T09:12:43;99504.00;;;5.40
66372;BMP180;53168;51.146;17.120;2023-12-20T09:15:46;99516.60;;;5.40
66372;BMP180;53168;51.146;17.120;2023-12-20T09:18:50;99503.40;;;5.40
66372;BMP180;53168;51.146;17.120;2023-12-20T09:21:29;99511.00;;;5.40
66372;BMP180;53168;51.146;17.120;2023-12-20T09:24:05;99513.60;;;5.40
66372;BMP180;53168;51.146;17.120;2023-12-20T09:26:40;99508.60;;;5.40
66372;BMP180;53168;51.146;17.120;2023-12-20T09:29:17;99509.60;;;5.40
66372;BMP180;53168;51.146;17.120;2023-12-20T09:31:51;99507.80;;;5.40
66372;BMP180;53168;51.146;17.120;2023-12-20T09:34:25;99511.60;;;5.40
66372;BMP180;53168;51.146;17.120;2023-12-20T09:36:59;99511.20;;;5.40
66372;BMP180;53168;51.146;17.120;2023-12-20T09:39:33;99514.60;;;5.40
66372;BMP180;53168;51.146;17.120;2023-12-20T09:42:10;99515.40;;;5.40
66372;BMP180;53168;51.146;17.120;2023-12-20T09:44:45;99511.60;;;5.40
66372;BMP180;53168;51.146;17.120;2023-12-20T09:47:24;99518.60;;;5.50
66372;BMP180;53168;51.146;17.120;2023-12-20T09:49:58;99511.80;;;5.50
66372;BMP180;53168;51.146;17.120;2023-12-20T09:52:35;99508.00;;;5.50
66372;BMP180;53168;51.146;17.120;2023-12-20T09:55:10;99505.40;;;5.50
66372;BMP180;53168;51.146;17.120;2023-12-20T09:57:44;99494.60;;;5.60
66372;BMP180;53168;51.146;17.120;2023-12-20T10:00:20;99496.60;;;5.60
66372;BMP180;53168;51.146;17.120;2023-12-20T10:03:00;99500.80;;;5.60
66372;BMP180;53168;51.146;17.120;2023-12-20T10:05:35;99487.20;;;5.70
66372;BMP180;53168;51.146;17.120;2023-12-20T10:08:10;99488.60;;;5.70
66372;BMP180;53168;51.146;17.120;2023-12-20T10:10:44;99478.40;;;5.70
66372;BMP180;53168;51.146;17.120;2023-12-20T10:13:20;99483.00;;;5.70
66372;BMP180;53168;51.146;17.120;2023-12-20T10:15:56;99492.60;;;5.70
66372;BMP180;53168;51.146;17.120;2023-12-20T10:18:32;99485.40;;;5.70
66372;BMP180;53168;51.146;17.120;2023-12-20T10:21:11;99487.80;;;5.74
66372;BMP180;53168;51.146;17.120;2023-12-20T10:23:47;99490.80;;;5.80
66372;BMP180;53168;51.146;17.120;2023-12-20T10:26:26;99488.40;;;5.78
66372;BMP180;53168;51.146;17.120;2023-12-20T10:29:04;99488.60;;;5.76
66372;BMP180;53168;51.146;17.120;2023-12-20T10:31:38;99485.40;;;5.76
66372;BMP180;53168;51.146;17.120;2023-12-20T10:34:28;99478.80;;;5.86
66372;BMP180;53168;51.146;17.120;2023-12-20T10:37:27;99464.40;;;5.80
66372;BMP180;53168;51.146;17.120;2023-12-20T10:40:36;99475.40;;;5.94
66372;BMP180;53168;51.146;17.120;2023-12-20T10:43:16;99475.60;;;6.20
66372;BMP180;53168;51.146;17.120;2023-12-20T10:46:05;99479.80;;;6.40
66372;BMP180;53168;51.146;17.120;2023-12-20T10:52:18;99470.60;;;6.14
66372;BMP180;53168;51.146;17.120;2023-12-20T10:54:54;99476.00;;;6.18
66372;BMP180;53168;51.146;17.120;2023-12-20T10:58:09;99473.60;;;6.12
66372;BMP180;53168;51.146;17.120;2023-12-20T11:01:05;99464.00;;;6.30
66372;BMP180;53168;51.146;17.120;2023-12-20T11:03:52;99452.60;;;6.56
66372;BMP180;53168;51.146;17.120;2023-12-20T11:06:58;99440.80;;;6.80
66372;BMP180;53168;51.146;17.120;2023-12-20T11:15:53;99434.40;;;7.20
66372;BMP180;53168;51.146;17.120;2023-12-20T11:18:33;99432.00;;;7.18
66372;BMP180;53168;51.146;17.120;2023-12-20T11:21:17;99439.40;;;7.50
66372;BMP180;53168;51.146;17.120;2023-12-20T11:23:52;99430.00;;;7.60
66372;BMP180;53168;51.146;17.120;2023-12-20T11:26:30;99420.60;;;8.02
66372;BMP180;53168;51.146;17.120;2023-12-20T11:29:33;99402.20;;;8.88
66372;BMP180;53168;51.146;17.120;2023-12-20T11:32:33;99394.80;;;9.80
66372;BMP180;53168;51.146;17.120;2023-12-20T11:35:22;99427.80;;;9.24
66372;BMP180;53168;51.146;17.120;2023-12-20T11:37:59;99416.60;;;8.70
66372;BMP180;53168;51.146;17.120;2023-12-20T11:40:36;99418.60;;;8.20
66372;BMP180;53168;51.146;17.120;2023-12-20T11:43:11;99406.60;;;7.90
66372;BMP180;53168;51.146;17.120;2023-12-20T11:45:52;99404.00;;;7.70
66372;BMP180;53168;51.146;17.120;2023-12-20T11:48:27;99397.00;;;7.60
66372;BMP180;53168;51.146;17.120;2023-12-20T11:51:01;99398.80;;;7.70
66372;BMP180;53168;51.146;17.120;2023-12-20T11:53:36;99383.20;;;7.70
66372;BMP180;53168;51.146;17.120;2023-12-20T11:56:11;99391.00;;;7.80
66372;BMP180;53168;51.146;17.120;2023-12-20T11:58:45;99392.80;;;7.80
66372;BMP180;53168;51.146;17.120;2023-12-20T12:01:24;99372.20;;;7.80
66372;BMP180;53168;51.146;17.120;2023-12-20T12:04:07;99355.60;;;8.08
66372;BMP180;53168;51.146;17.120;2023-12-20T12:06:41;99363.80;;;8.50
66372;BMP180;53168;51.146;17.120;2023-12-20T12:09:16;99371.60;;;8.86
66372;BMP180;53168;51.146;17.120;2023-12-20T12:11:51;99362.80;;;8.30
66372;BMP180;53168;51.146;17.120;2023-12-20T12:14:25;99368.60;;;8.00
66372;BMP180;53168;51.146;17.120;2023-12-20T12:17:00;99353.80;;;7.80
66372;BMP180;53168;51.146;17.120;2023-12-20T12:19:46;99346.40;;;7.60
66372;BMP180;53168;51.146;17.120;2023-12-20T12:22:21;99349.00;;;7.50
66372;BMP180;53168;51.146;17.120;2023-12-20T12:25:11;99345.40;;;7.40
66372;BMP180;53168;51.146;17.120;2023-12-20T12:27:46;99335.00;;;7.40
66372;BMP180;53168;51.146;17.120;2023-12-20T12:30:21;99336.20;;;7.30
66372;BMP180;53168;51.146;17.120;2023-12-20T12:32:58;99337.80;;;7.20
66372;BMP180;53168;51.146;17.120;2023-12-20T12:35:32;99340.20;;;7.20
66372;BMP180;53168;51.146;17.120;2023-12-20T12:38:10;99336.80;;;7.20
66372;BMP180;53168;51.146;17.120;2023-12-20T12:40:46;99330.00;;;7.10
66372;BMP180;53168;51.146;17.120;2023-12-20T12:43:20;99329.20;;;7.10
66372;BMP180;53168;51.146;17.120;2023-12-20T12:45:55;99331.80;;;7.04
66372;BMP180;53168;51.146;17.120;2023-12-20T12:48:29;99340.40;;;7.00
66372;BMP180;53168;51.146;17.120;2023-12-20T12:51:04;99333.20;;;7.00
66372;BMP180;53168;51.146;17.120;2023-12-20T12:53:39;99328.80;;;7.00
66372;BMP180;53168;51.146;17.120;2023-12-20T12:56:16;99323.60;;;7.00
66372;BMP180;53168;51.146;17.120;2023-12-20T12:58:50;99336.20;;;7.00
66372;BMP180;53168;51.146;17.120;2023-12-20T13:01:24;99329.20;;;7.00
66372;BMP180;53168;51.146;17.120;2023-12-20T13:03:59;99333.60;;;7.00
66372;BMP180;53168;51.146;17.120;2023-12-20T13:06:39;99320.20;;;7.00
66372;BMP180;53168;51.146;17.120;2023-12-20T13:09:15;99322.80;;;7.00
66372;BMP180;53168;51.146;17.120;2023-12-20T13:11:48;99311.20;;;7.38
66372;BMP180;53168;51.146;17.120;2023-12-20T13:14:22;99301.40;;;7.48
66372;BMP180;53168;51.146;17.120;2023-12-20T13:16:56;99321.00;;;7.96
66372;BMP180;53168;51.146;17.120;2023-12-20T13:19:30;99294.00;;;8.08
66372;BMP180;53168;51.146;17.120;2023-12-20T13:22:06;99298.80;;;8.28
66372;BMP180;53168;51.146;17.120;2023-12-20T13:24:40;99312.80;;;8.08
66372;BMP180;53168;51.146;17.120;2023-12-20T13:27:16;99316.80;;;7.80
66372;BMP180;53168;51.146;17.120;2023-12-20T13:29:50;99333.20;;;7.60
66372;BMP180;53168;51.146;17.120;2023-12-20T13:32:24;99322.40;;;7.40
66372;BMP180;53168;51.146;17.120;2023-12-20T13:34:58;99321.40;;;7.30
66372;BMP180;53168;51.146;17.120;2023-12-20T13:37:32;99311.80;;;7.20
66372;BMP180;53168;51.146;17.120;2023-12-20T13:40:09;99307.80;;;7.10
66372;BMP180;53168;51.146;17.120;2023-12-20T13:42:43;99310.80;;;6.98
66372;BMP180;53168;51.146;17.120;2023-12-20T13:45:18;99306.40;;;6.80
66372;BMP180;53168;51.146;17.120;2023-12-20T13:47:52;99311.60;;;6.68
66372;BMP180;53168;51.146;17.120;2023-12-20T13:50:26;99314.00;;;6.60
66372;BMP180;53168;51.146;17.120;2023-12-20T13:53:00;99292.60;;;6.60
66372;BMP180;53168;51.146;17.120;2023-12-20T13:55:36;99295.80;;;6.60
66372;BMP180;53168;51.146;17.120;2023-12-20T13:58:10;99291.40;;;6.60
66372;BMP180;53168;51.146;17.120;2023-12-20T14:00:44;99295.00;;;6.70
66372;BMP180;53168;51.146;17.120;2023-12-20T14:03:18;99291.60;;;6.70
66372;BMP180;53168;51.146;17.120;2023-12-20T14:05:53;99289.00;;;6.70
66372;BMP180;53168;51.146;17.120;2023-12-20T14:08:27;99280.60;;;6.78
66372;BMP180;53168;51.146;17.120;2023-12-20T14:11:01;99279.60;;;6.80
66372;BMP180;53168;51.146;17.120;2023-12-20T14:13:34;99283.00;;;6.80
66372;BMP180;53168;51.146;17.120;2023-12-20T14:16:11;99282.40;;;6.80
66372;BMP180;53168;51.146;17.120;2023-12-20T14:18:45;99292.00;;;6.88
66372;BMP180;53168;51.146;17.120;2023-12-20T14:21:19;99289.20;;;6.98
66372;BMP180;53168;51.146;17.120;2023-12-20T14:23:53;99292.60;;;6.94
66372;BMP180;53168;51.146;17.120;2023-12-20T14:26:27;99294.00;;;6.92
66372;BMP180;53168;51.146;17.120;2023-12-20T14:29:01;99296.00;;;7.00
66372;BMP180;53168;51.146;17.120;2023-12-20T14:31:39;99291.00;;;7.00
66372;BMP180;53168;51.146;17.120;2023-12-20T14:34:15;99283.20;;;7.00
66372;BMP180;53168;51.146;17.120;2023-12-20T14:36:49;99283.60;;;7.00
66372;BMP180;53168;51.146;17.120;2023-12-20T14:39:22;99291.20;;;6.90
66372;BMP180;53168;51.146;17.120;2023-12-20T14:41:56;99283.80;;;6.90
66372;BMP180;53168;51.146;17.120;2023-12-20T14:44:30;99281.80;;;6.90
66372;BMP180;53168;51.146;17.120;2023-12-20T14:47:04;99278.80;;;6.90
66372;BMP180;53168;51.146;17.120;2023-12-20T14:49:38;99270.20;;;6.86
66372;BMP180;53168;51.146;17.120;2023-12-20T14:52:12;99277.20;;;6.86
66372;BMP180;53168;51.146;17.120;2023-12-20T14:54:46;99270.20;;;6.90
66372;BMP180;53168;51.146;17.120;2023-12-20T14:57:20;99259.40;;;6.90
66372;BMP180;53168;51.146;17.120;2023-12-20T14:59:54;99265.00;;;6.90
66372;BMP180;53168;51.146;17.120;2023-12-20T15:02:29;99259.20;;;6.90
66372;BMP180;53168;51.146;17.120;2023-12-20T15:05:16;99261.40;;;6.90
66372;BMP180;53168;51.146;17.120;2023-12-20T15:07:52;99264.60;;;6.98
66372;BMP180;53168;51.146;17.120;2023-12-20T15:10:34;99261.40;;;7.00
66372;BMP180;53168;51.146;17.120;2023-12-20T15:13:14;99261.80;;;7.00
66372;BMP180;53168;51.146;17.120;2023-12-20T15:15:50;99260.00;;;7.00
66372;BMP180;53168;51.146;17.120;2023-12-20T15:18:24;99253.00;;;7.00
66372;BMP180;53168;51.146;17.120;2023-12-20T15:20:58;99258.00;;;7.00
66372;BMP180;53168;51.146;17.120;2023-12-20T15:23:32;99245.80;;;6.92
66372;BMP180;53168;51.146;17.120;2023-12-20T15:26:06;99240.60;;;6.90